Аэропорт: Атырау. Атырау

ICAO: UATG

METAR:
2018/05/20 23:00
UATG 202300Z 07003MPS CAVOK 17/06 Q1016 R32/CLRD70 NOSIG RMK QFE764/1018
METAR:
2018/05/20 22:06
TAF 
      AMD TAF 
      AMD UATG 202203Z 2022/2118 VRB02MPS 5000 FU SCT033 TX33/2112Z TN18/2101Z 
      BECMG 2104/2106 18006MPS 9999 NSW